createdAt,value
2018-12-06T00:24:51.407Z,22.4
2018-12-06T00:25:42.015Z,22.4
2018-12-06T00:26:31.746Z,22.4
2018-12-06T00:27:22.104Z,22.4
2018-12-06T00:28:12.462Z,22.4
2018-12-06T00:29:02.468Z,22.4
2018-12-06T00:29:53.107Z,22.4
2018-12-06T00:30:42.636Z,22.4
2018-12-06T00:31:32.458Z,22.4
2018-12-06T00:32:22.412Z,22.4
2018-12-06T00:33:12.532Z,22.4
2018-12-06T00:34:03.094Z,22.4
2018-12-06T00:34:52.675Z,22.4
2018-12-06T00:35:41.925Z,22.4
2018-12-06T00:36:33.104Z,22.4
2018-12-06T00:37:22.237Z,22.4
2018-12-06T00:38:13.149Z,22.4
2018-12-06T00:39:03.117Z,22.4
2018-12-06T00:39:53.228Z,22.4
2018-12-06T00:40:42.834Z,22.3
2018-12-06T00:41:33.634Z,22.3
2018-12-06T00:42:22.854Z,22.3
2018-12-06T00:43:12.366Z,22.3
2018-12-06T00:44:03.539Z,22.3
2018-12-06T00:44:53.857Z,22.3
2018-12-06T00:45:43.610Z,22.3
2018-12-06T00:46:33.193Z,22.3
2018-12-06T00:47:23.723Z,22.3
2018-12-06T00:48:12.970Z,22.3
2018-12-06T00:49:04.187Z,22.3
2018-12-06T00:49:53.938Z,22.3
2018-12-06T00:50:43.762Z,22.3
2018-12-06T00:51:33.243Z,22.3
2018-12-06T00:52:23.798Z,22.3
2018-12-06T00:53:13.888Z,22.3
2018-12-06T00:54:03.930Z,22.3
2018-12-06T00:54:53.978Z,22.4
2018-12-06T00:55:44.355Z,22.4
2018-12-06T00:56:34.398Z,22.4
2018-12-06T00:57:24.139Z,22.4
2018-12-06T00:58:14.237Z,22.4
2018-12-06T00:59:04.095Z,22.4
2018-12-06T00:59:53.802Z,22.4
2018-12-06T01:00:44.647Z,22.4
2018-12-06T01:01:34.754Z,22.4
2018-12-06T01:02:24.832Z,22.4
2018-12-06T01:03:14.664Z,22.4
2018-12-06T01:04:05.258Z,22.5
2018-12-06T01:04:54.689Z,22.5
2018-12-06T01:05:44.747Z,22.4
2018-12-06T01:06:35.432Z,22.4
2018-12-06T01:07:25.272Z,22.4
2018-12-06T01:08:15.218Z,22.4
2018-12-06T01:09:05.333Z,22.4
2018-12-06T01:09:55.311Z,22.4
2018-12-06T01:10:45.379Z,22.4
2018-12-06T01:11:34.868Z,22.4
2018-12-06T01:12:25.444Z,22.4
2018-12-06T01:13:15.514Z,22.4
2018-12-06T01:14:05.326Z,22.4
2018-12-06T01:14:55.996Z,22.4
2018-12-06T01:15:46.574Z,22.4
2018-12-06T01:16:35.206Z,22.4
2018-12-06T01:17:25.264Z,22.3
2018-12-06T01:18:15.901Z,22.4
2018-12-06T01:19:05.109Z,22.4
2018-12-06T01:19:55.433Z,22.3
2018-12-06T01:20:45.791Z,22.3
2018-12-06T01:21:36.165Z,22.3
2018-12-06T01:22:26.240Z,22.3
2018-12-06T01:23:15.955Z,22.3
2018-12-06T01:24:06.533Z,22.3
2018-12-06T01:24:55.780Z,22.3
2018-12-06T01:25:45.985Z,22.3
2018-12-06T01:26:35.886Z,22.3
2018-12-06T01:27:26.028Z,22.3
2018-12-06T01:28:16.585Z,22.3
2018-12-06T01:29:06.350Z,22.3
2018-12-06T01:29:55.866Z,22.3
2018-12-06T01:30:46.488Z,22.4
2018-12-06T01:31:36.818Z,22.4
2018-12-06T01:32:26.592Z,22.4
2018-12-06T01:33:16.905Z,22.4
2018-12-06T01:34:07.260Z,22.4
2018-12-06T01:34:56.210Z,22.4
2018-12-06T01:35:47.620Z,22.4
2018-12-06T01:36:37.152Z,22.4
2018-12-06T01:37:27.204Z,22.4
2018-12-06T01:38:16.700Z,22.4
2018-12-06T01:39:06.787Z,22.4
2018-12-06T01:39:56.547Z,22.4
2018-12-06T01:40:47.205Z,22.4
2018-12-06T01:41:38.017Z,22.4
2018-12-06T01:42:27.869Z,22.4
2018-12-06T01:43:17.345Z,22.4
2018-12-06T01:44:07.397Z,22.4
2018-12-06T01:44:56.889Z,22.4
2018-12-06T01:45:47.769Z,22.4
2018-12-06T01:46:37.602Z,22.4
2018-12-06T01:47:28.018Z,22.4
2018-12-06T01:48:17.435Z,22.4
2018-12-06T01:49:07.563Z,22.4
2018-12-06T01:49:57.524Z,22.4
2018-12-06T01:50:48.154Z,22.4
2018-12-06T01:51:38.150Z,22.4
2018-12-06T01:52:27.403Z,22.4
2018-12-06T01:53:17.731Z,22.4
2018-12-06T01:54:07.773Z,22.4
2018-12-06T01:54:57.956Z,22.4
2018-12-06T01:55:47.918Z,22.4
2018-12-06T01:56:39.363Z,22.4
2018-12-06T01:57:28.616Z,22.4
2018-12-06T01:58:18.673Z,22.4
2018-12-06T01:59:08.390Z,22.4
2018-12-06T01:59:59.027Z,22.4
2018-12-06T02:00:48.573Z,22.3
2018-12-06T02:01:38.861Z,22.3
2018-12-06T02:02:28.097Z,22.3
2018-12-06T02:03:18.142Z,22.4
2018-12-06T02:04:08.770Z,22.4
2018-12-06T02:04:58.839Z,22.3
2018-12-06T02:05:49.248Z,22.3
2018-12-06T02:06:38.107Z,22.3
2018-12-06T02:07:28.723Z,22.3
2018-12-06T02:08:19.889Z,22.3
2018-12-06T02:09:09.104Z,22.3
2018-12-06T02:09:58.897Z,22.3
2018-12-06T02:10:48.984Z,22.4
2018-12-06T02:11:38.984Z,22.4
2018-12-06T02:12:29.389Z,22.4
2018-12-06T02:13:19.424Z,22.4
2018-12-06T02:14:09.196Z,22.4
2018-12-06T02:14:59.099Z,22.4
2018-12-06T02:15:49.559Z,22.4
2018-12-06T02:16:39.179Z,22.4
2018-12-06T02:17:28.924Z,22.4
2018-12-06T02:18:20.012Z,22.4
2018-12-06T02:19:10.166Z,22.4
2018-12-06T02:19:59.842Z,22.5
2018-12-06T02:20:49.639Z,22.4
2018-12-06T02:21:39.787Z,22.4
2018-12-06T02:22:29.709Z,22.4
2018-12-06T02:23:20.360Z,22.4
2018-12-06T02:24:10.240Z,22.4
2018-12-06T02:25:00.263Z,22.4
2018-12-06T02:25:50.549Z,22.4
2018-12-06T02:26:40.893Z,22.4
2018-12-06T02:27:29.906Z,22.4
2018-12-06T02:28:20.513Z,22.4
2018-12-06T02:29:10.271Z,22.4
2018-12-06T02:30:00.122Z,22.4
2018-12-06T02:30:50.726Z,22.4
2018-12-06T02:31:41.089Z,22.4
2018-12-06T02:32:30.870Z,22.4
2018-12-06T02:33:20.543Z,22.4
2018-12-06T02:34:12.017Z,22.4
2018-12-06T02:35:01.647Z,22.4
2018-12-06T02:35:50.173Z,22.4
2018-12-06T02:36:41.062Z,22.4
2018-12-06T02:37:31.713Z,22.5
2018-12-06T02:38:21.297Z,22.4
2018-12-06T02:39:11.390Z,22.5
2018-12-06T02:40:01.558Z,22.5
2018-12-06T02:40:51.356Z,22.5
2018-12-06T02:41:41.380Z,22.5
2018-12-06T02:42:31.437Z,22.5
2018-12-06T02:43:21.282Z,22.5
2018-12-06T02:44:11.025Z,22.5
2018-12-06T02:45:01.299Z,22.5
2018-12-06T02:45:51.402Z,22.5
2018-12-06T02:46:41.207Z,22.5
2018-12-06T02:47:31.911Z,22.5
2018-12-06T02:48:21.942Z,22.5
2018-12-06T02:49:12.512Z,22.5
2018-12-06T02:50:02.341Z,22.4
2018-12-06T02:50:51.760Z,22.4
2018-12-06T02:51:41.514Z,22.4
2018-12-06T02:52:32.204Z,22.4
2018-12-06T02:53:22.802Z,22.4
2018-12-06T02:54:11.687Z,22.4
2018-12-06T02:55:02.346Z,22.4
2018-12-06T02:55:52.339Z,22.4
2018-12-06T02:56:42.031Z,22.4
2018-12-06T02:57:32.583Z,22.4
2018-12-06T02:58:21.963Z,22.4
2018-12-06T02:59:12.874Z,22.4
2018-12-06T03:00:02.729Z,22.4
2018-12-06T03:00:52.987Z,22.4
2018-12-06T03:01:42.728Z,22.4
2018-12-06T03:02:32.801Z,22.4
2018-12-06T03:03:23.246Z,22.4
2018-12-06T03:04:13.468Z,22.4
2018-12-06T03:05:03.631Z,22.4
2018-12-06T03:05:53.347Z,22.4
2018-12-06T03:06:43.440Z,22.4
2018-12-06T03:07:33.444Z,22.4
2018-12-06T03:08:23.459Z,22.4
2018-12-06T03:09:13.308Z,22.4
2018-12-06T03:10:03.351Z,22.4
2018-12-06T03:10:53.408Z,22.4
2018-12-06T03:11:43.743Z,22.4
2018-12-06T03:12:33.511Z,22.4
2018-12-06T03:13:23.438Z,22.4
2018-12-06T03:14:13.328Z,22.4
2018-12-06T03:15:04.610Z,22.4
2018-12-06T03:15:53.491Z,22.5
2018-12-06T03:16:43.791Z,22.5
2018-12-06T03:17:33.858Z,22.5
2018-12-06T03:18:24.448Z,22.5
2018-12-06T03:19:14.210Z,22.5
2018-12-06T03:20:04.309Z,22.5
2018-12-06T03:20:54.081Z,22.5
2018-12-06T03:21:44.145Z,22.5
2018-12-06T03:22:34.468Z,22.5
2018-12-06T03:23:24.261Z,22.6
2018-12-06T03:24:14.356Z,22.5
2018-12-06T03:25:04.688Z,22.4
2018-12-06T03:25:53.975Z,22.5
2018-12-06T03:26:43.665Z,22.4
2018-12-06T03:27:34.839Z,22.4
2018-12-06T03:28:24.294Z,22.4
2018-12-06T03:29:14.403Z,22.4
2018-12-06T03:30:04.769Z,22.4
2018-12-06T03:30:55.271Z,22.4
2018-12-06T03:31:44.718Z,22.4
2018-12-06T03:32:35.018Z,22.4
2018-12-06T03:33:25.597Z,22.4
2018-12-06T03:34:15.273Z,22.4
2018-12-06T03:35:05.622Z,22.4
2018-12-06T03:35:55.240Z,22.4
2018-12-06T03:36:47.559Z,22.4
2018-12-06T03:37:35.055Z,22.4
2018-12-06T03:38:25.015Z,22.4
2018-12-06T03:39:15.075Z,22.4
2018-12-06T03:40:05.459Z,22.4
2018-12-06T03:40:55.697Z,22.4
2018-12-06T03:41:45.508Z,22.4
2018-12-06T03:42:34.779Z,22.4
2018-12-06T03:43:25.610Z,22.4
2018-12-06T03:44:15.419Z,22.4
2018-12-06T03:45:05.459Z,22.4
2018-12-06T03:45:56.049Z,22.4
2018-12-06T03:46:46.519Z,22.4
2018-12-06T03:47:35.747Z,22.4
2018-12-06T03:48:25.946Z,22.4
2018-12-06T03:49:16.408Z,22.4
2018-12-06T03:50:05.950Z,22.4
2018-12-06T03:50:56.464Z,22.4
2018-12-06T03:51:46.763Z,22.4
2018-12-06T03:52:36.659Z,22.4
2018-12-06T03:53:25.758Z,22.4
2018-12-06T03:54:16.909Z,22.4
2018-12-06T03:55:06.253Z,22.4
2018-12-06T03:55:56.518Z,22.4
2018-12-06T03:56:46.269Z,22.4
2018-12-06T03:57:35.520Z,22.4
2018-12-06T03:58:26.930Z,22.5
2018-12-06T03:59:17.015Z,22.5
2018-12-06T04:00:07.354Z,22.5
2018-12-06T04:00:56.838Z,22.5
2018-12-06T04:01:46.913Z,22.6
2018-12-06T04:02:36.918Z,22.5
2018-12-06T04:03:26.726Z,22.5
2018-12-06T04:04:17.377Z,22.5
2018-12-06T04:05:07.173Z,22.5
2018-12-06T04:05:57.443Z,22.5
2018-12-06T04:06:47.463Z,22.5
2018-12-06T04:07:37.103Z,22.5
2018-12-06T04:08:27.081Z,22.5
2018-12-06T04:09:18.072Z,22.4
2018-12-06T04:10:08.760Z,22.5
2018-12-06T04:10:58.126Z,22.4
2018-12-06T04:11:47.838Z,22.4
2018-12-06T04:12:37.159Z,22.4
2018-12-06T04:13:28.075Z,22.4
2018-12-06T04:14:17.513Z,22.4
2018-12-06T04:15:07.861Z,22.4
2018-12-06T04:15:57.897Z,22.4
2018-12-06T04:16:48.171Z,22.4
2018-12-06T04:17:38.501Z,22.4
2018-12-06T04:18:28.042Z,22.4
2018-12-06T04:19:18.165Z,22.4
2018-12-06T04:20:08.199Z,22.4
2018-12-06T04:20:58.705Z,22.4
2018-12-06T04:21:47.708Z,22.4
2018-12-06T04:22:38.323Z,22.3
2018-12-06T04:23:28.502Z,22.3
2018-12-06T04:24:18.516Z,22.3
2018-12-06T04:25:08.507Z,22.4
2018-12-06T04:25:58.857Z,22.3
2018-12-06T04:26:48.585Z,22.4
2018-12-06T04:27:38.641Z,22.4
2018-12-06T04:28:28.440Z,22.4
2018-12-06T04:29:19.042Z,22.4
2018-12-06T04:30:08.426Z,22.4
2018-12-06T04:30:59.722Z,22.4
2018-12-06T04:31:48.937Z,22.4
2018-12-06T04:32:39.564Z,22.4
2018-12-06T04:33:29.352Z,22.4
2018-12-06T04:34:18.918Z,22.4
2018-12-06T04:35:09.208Z,22.4
2018-12-06T04:35:59.552Z,22.4
2018-12-06T04:36:49.356Z,22.4
2018-12-06T04:54:07.698Z,22.3
2018-12-06T04:54:57.002Z,22.2
2018-12-06T04:55:47.575Z,22.1
2018-12-06T04:56:37.409Z,22.1
2018-12-06T04:57:27.921Z,22
2018-12-06T04:58:18.043Z,21.9
2018-12-06T04:59:08.089Z,21.9
2018-12-06T04:59:57.831Z,21.9
2018-12-06T05:00:48.180Z,21.9
2018-12-06T05:01:37.343Z,21.9
2018-12-06T05:02:28.234Z,21.9
2018-12-06T05:03:17.271Z,21.9
2018-12-06T05:04:08.306Z,21.9
2018-12-06T05:04:57.828Z,21.9
2018-12-06T05:05:47.063Z,21.8
2018-12-06T05:06:38.508Z,21.7
2018-12-06T05:07:28.015Z,21.6
2018-12-06T05:08:17.806Z,21.5
2018-12-06T05:09:08.403Z,21.4
2018-12-06T05:09:58.983Z,21.3
2018-12-06T05:10:48.301Z,21.3
2018-12-06T05:11:38.295Z,21.2
2018-12-06T05:14:09.342Z,21.1
2018-12-06T05:14:59.401Z,21.1
2018-12-06T05:15:48.607Z,21.1
2018-12-06T05:16:38.637Z,21
2018-12-06T05:17:28.133Z,21.1
2018-12-06T05:18:18.473Z,21.1
2018-12-06T05:19:09.337Z,21.1
2018-12-06T05:19:59.067Z,21
2018-12-06T05:20:48.937Z,20.9
2018-12-06T05:21:38.724Z,20.9
2018-12-06T05:22:29.062Z,20.8
2018-12-06T05:23:19.107Z,20.8
2018-12-06T05:24:08.592Z,20.8
2018-12-06T05:24:59.786Z,20.7
2018-12-06T05:25:48.429Z,20.7
2018-12-06T05:26:39.589Z,20.6
2018-12-06T05:27:29.709Z,20.6
2018-12-06T05:28:18.874Z,20.6
2018-12-06T05:29:09.489Z,20.6
2018-12-06T05:30:00.629Z,20.6
2018-12-06T05:30:50.203Z,20.6
2018-12-06T05:31:39.401Z,20.6
2018-12-06T05:32:30.346Z,20.7
2018-12-06T05:33:19.219Z,20.7
2018-12-06T05:34:09.843Z,20.7
2018-12-06T05:35:00.216Z,20.7
2018-12-06T05:35:50.219Z,20.7
2018-12-06T05:36:39.611Z,20.6
2018-12-06T05:37:29.805Z,20.6
2018-12-06T05:38:20.129Z,20.6
2018-12-06T05:39:10.196Z,20.7
2018-12-06T05:40:00.248Z,20.7
2018-12-06T05:40:50.595Z,20.6
2018-12-06T05:41:40.398Z,20.6
2018-12-06T05:42:29.945Z,20.7
2018-12-06T05:43:20.759Z,20.6
2018-12-06T05:44:09.968Z,20.6
2018-12-06T05:45:01.177Z,20.6
2018-12-06T05:45:51.205Z,20.6
2018-12-06T05:46:40.967Z,20.6
2018-12-06T05:47:30.355Z,20.6
2018-12-06T05:48:20.097Z,20.6
2018-12-06T05:49:10.950Z,20.6
2018-12-06T05:50:00.443Z,20.6
2018-12-06T05:50:51.195Z,20.6
2018-12-06T05:51:41.318Z,20.6
2018-12-06T05:52:31.174Z,20.5
2018-12-06T05:53:20.863Z,20.5
2018-12-06T05:54:11.201Z,20.4
2018-12-06T05:55:01.591Z,20.4
2018-12-06T05:55:51.091Z,20.4
2018-12-06T05:56:42.057Z,20.4
2018-12-06T05:57:30.387Z,20.4
2018-12-06T05:58:20.520Z,20.4
2018-12-06T05:59:11.357Z,20.4
2018-12-06T06:00:01.665Z,20.4
2018-12-06T06:00:52.511Z,20.4
2018-12-06T06:01:41.281Z,20.4
2018-12-06T06:02:32.023Z,20.4
2018-12-06T06:03:21.854Z,20.5
2018-12-06T06:04:12.541Z,20.6
2018-12-06T06:05:02.528Z,20.8
2018-12-06T06:05:52.320Z,20.9
2018-12-06T06:06:42.328Z,21
2018-12-06T06:07:31.925Z,21.1
2018-12-06T06:08:21.616Z,21.2
2018-12-06T06:09:12.260Z,21.3
2018-12-06T06:10:02.658Z,21.4
2018-12-06T06:10:52.095Z,21.4
2018-12-06T06:11:42.706Z,21.5
2018-12-06T06:12:32.978Z,21.6
2018-12-06T06:13:22.857Z,21.6
2018-12-06T06:14:12.925Z,21.7
2018-12-06T06:15:02.647Z,21.7
2018-12-06T06:15:51.545Z,21.8
2018-12-06T06:16:42.987Z,21.8
2018-12-06T06:17:33.112Z,21.8
2018-12-06T06:18:22.697Z,21.9
2018-12-06T06:19:12.622Z,21.9
2018-12-06T06:20:02.972Z,21.9
2018-12-06T06:20:53.087Z,21.9
2018-12-06T06:21:43.625Z,21.9
2018-12-06T06:22:33.463Z,21.9
2018-12-06T06:23:23.822Z,22
2018-12-06T06:24:13.505Z,22
2018-12-06T06:25:04.024Z,22
2018-12-06T06:25:53.148Z,22
2018-12-06T06:26:43.512Z,22
2018-12-06T06:27:33.581Z,22
2018-12-06T06:28:23.832Z,22
2018-12-06T06:29:13.759Z,21.9
2018-12-06T06:30:03.386Z,21.9
2018-12-06T06:30:53.524Z,21.9
2018-12-06T06:31:42.704Z,21.9
2018-12-06T06:32:33.114Z,21.9
2018-12-06T06:33:24.797Z,21.9
2018-12-06T06:34:13.366Z,21.9
2018-12-06T06:35:04.344Z,21.9
2018-12-06T06:35:54.346Z,21.9
2018-12-06T06:36:43.281Z,21.9
2018-12-06T06:37:34.171Z,21.9
2018-12-06T06:38:23.648Z,21.9
2018-12-06T06:39:16.013Z,21.9
2018-12-06T06:40:03.863Z,21.9
2018-12-06T06:40:54.116Z,21.9
2018-12-06T06:41:44.483Z,21.9
2018-12-06T06:42:34.253Z,21.9
2018-12-06T06:43:24.283Z,21.9
2018-12-06T06:44:14.597Z,21.9
2018-12-06T06:45:04.426Z,21.9
2018-12-06T06:45:55.084Z,21.9
2018-12-06T06:46:44.870Z,21.9
2018-12-06T06:47:35.708Z,22
2018-12-06T06:48:24.620Z,21.9
2018-12-06T06:49:20.948Z,21.9
2018-12-06T06:50:05.025Z,22
2018-12-06T06:50:55.623Z,22
2018-12-06T06:51:45.646Z,22
2018-12-06T06:52:35.979Z,22
2018-12-06T06:53:24.468Z,22
2018-12-06T06:54:14.514Z,22
2018-12-06T06:55:05.622Z,22.1
2018-12-06T06:55:55.965Z,22
2018-12-06T06:56:45.443Z,22
2018-12-06T06:57:34.482Z,22.1
2018-12-06T06:58:25.613Z,22
2018-12-06T06:59:15.095Z,22.1
2018-12-06T07:00:06.255Z,22.1
2018-12-06T07:00:56.020Z,22.1
2018-12-06T07:01:46.345Z,22.1
2018-12-06T07:02:36.015Z,22.1
2018-12-06T07:03:25.980Z,22.1
2018-12-06T07:04:16.237Z,22.1
2018-12-06T07:05:06.288Z,22.1
2018-12-06T07:05:55.809Z,22.1
2018-12-06T07:06:45.860Z,22.1
2018-12-06T07:07:35.622Z,22.1
2018-12-06T07:08:27.062Z,22.1
2018-12-06T07:09:16.843Z,22.2
2018-12-06T07:10:06.082Z,22.1
2018-12-06T07:10:56.797Z,22.1
2018-12-06T07:11:46.770Z,21.9
2018-12-06T07:12:36.288Z,21.8
2018-12-06T07:13:27.197Z,21.8
2018-12-06T07:14:16.387Z,21.8
2018-12-06T07:15:07.071Z,21.8
2018-12-06T07:15:56.767Z,21.8
2018-12-06T07:16:46.834Z,21.9
2018-12-06T07:17:37.447Z,21.9
2018-12-06T07:18:26.669Z,21.9
2018-12-06T07:19:16.692Z,21.9
2018-12-06T07:20:07.034Z,21.9
2018-12-06T07:20:57.087Z,21.9
2018-12-06T07:21:47.166Z,21.9
2018-12-06T07:22:36.924Z,21.9
2018-12-06T07:23:28.226Z,21.9
2018-12-06T07:24:17.919Z,21.8
2018-12-06T07:25:07.696Z,21.8
2018-12-06T07:25:57.721Z,21.8
2018-12-06T07:26:49.999Z,21.8
2018-12-06T07:27:37.626Z,21.8
2018-12-06T07:28:27.871Z,21.8
2018-12-06T07:29:17.639Z,21.8
2018-12-06T07:30:14.999Z,21.8
2018-12-06T07:30:57.872Z,21.8
2018-12-06T07:31:48.108Z,21.9
2018-12-06T07:32:37.683Z,21.9
2018-12-06T07:33:28.013Z,21.9
2018-12-06T07:34:18.289Z,21.9
2018-12-06T07:35:07.823Z,21.9
2018-12-06T07:35:58.696Z,21.9
2018-12-06T07:36:48.223Z,21.9
2018-12-06T07:37:37.738Z,21.9
2018-12-06T07:38:29.120Z,21.9
2018-12-06T07:39:18.563Z,21.9
2018-12-06T07:40:08.430Z,21.9
2018-12-06T07:40:58.465Z,21.9
2018-12-06T07:41:48.281Z,21.9
2018-12-06T07:42:38.590Z,21.9
2018-12-06T07:43:30.443Z,21.9
2018-12-06T07:44:19.298Z,21.9
2018-12-06T07:45:09.043Z,22
2018-12-06T07:45:58.822Z,22
2018-12-06T07:46:48.317Z,21.9
2018-12-06T07:47:38.677Z,22
2018-12-06T07:48:28.987Z,22
2018-12-06T07:49:19.581Z,22
2018-12-06T07:50:09.124Z,22.1
2018-12-06T07:50:59.542Z,22.1
2018-12-06T07:51:48.766Z,22.1
2018-12-06T07:52:38.771Z,22.1
2018-12-06T07:53:29.124Z,22.1
2018-12-06T07:54:20.712Z,22.1
2018-12-06T07:55:09.514Z,22.1
2018-12-06T07:55:59.327Z,22.1
2018-12-06T07:56:49.084Z,22.1
2018-12-06T07:57:39.124Z,22.1
2018-12-06T07:58:29.204Z,22.1
2018-12-06T07:59:20.938Z,22.1
2018-12-06T08:00:09.851Z,22.1
2018-12-06T08:00:59.601Z,22.1
2018-12-06T08:01:49.911Z,22.1
2018-12-06T08:02:40.261Z,22.1
2018-12-06T08:03:29.801Z,22
2018-12-06T08:04:20.619Z,22.1
2018-12-06T08:05:09.946Z,22
2018-12-06T08:06:00.746Z,22
2018-12-06T08:06:50.543Z,22
2018-12-06T08:07:40.060Z,22
2018-12-06T08:08:30.457Z,21.9
2018-12-06T08:09:20.990Z,22
2018-12-06T08:10:10.206Z,22
2018-12-06T08:11:00.350Z,21.9
2018-12-06T08:11:51.118Z,21.9
2018-12-06T08:12:40.938Z,21.9
2018-12-06T08:13:31.268Z,21.9
2018-12-06T08:14:21.070Z,21.9
2018-12-06T08:15:11.368Z,21.9
2018-12-06T08:16:00.135Z,21.9
2018-12-06T08:16:50.930Z,21.9
2018-12-06T08:17:41.017Z,21.9
2018-12-06T08:18:31.627Z,21.8
2018-12-06T08:19:21.416Z,21.8
2018-12-06T08:20:11.965Z,21.8
2018-12-06T08:21:00.701Z,21.8
2018-12-06T08:21:52.098Z,21.8
2018-12-06T08:22:41.628Z,21.8
2018-12-06T08:23:31.964Z,21.8
2018-12-06T08:24:21.462Z,21.8
2018-12-06T08:25:11.856Z,21.8
2018-12-06T08:26:02.150Z,21.8
2018-12-06T08:26:51.640Z,21.8
2018-12-06T08:27:41.428Z,21.9
2018-12-06T08:28:30.921Z,21.9
2018-12-06T08:29:21.832Z,21.9
2018-12-06T08:30:12.092Z,21.9
2018-12-06T08:31:02.471Z,21.9
2018-12-06T08:31:50.967Z,21.9
2018-12-06T08:32:42.140Z,21.9
2018-12-06T08:33:31.272Z,21.8
2018-12-06T08:34:22.452Z,21.8
2018-12-06T08:35:12.807Z,21.8
2018-12-06T08:36:02.060Z,21.8
2018-12-06T08:36:52.134Z,21.8
2018-12-06T08:37:42.999Z,21.8
2018-12-06T08:38:32.469Z,21.8
2018-12-06T08:39:21.112Z,21.8
2018-12-06T08:40:12.621Z,21.8
2018-12-06T08:41:01.616Z,21.8
2018-12-06T08:41:52.673Z,21.8
2018-12-06T08:42:50.981Z,21.8
2018-12-06T08:43:34.273Z,21.8
2018-12-06T08:44:28.064Z,21.8
2018-12-06T08:45:13.230Z,21.8
2018-12-06T08:46:02.403Z,21.9
2018-12-06T08:46:52.711Z,21.9
2018-12-06T08:47:43.361Z,21.9
2018-12-06T08:48:32.848Z,21.9
2018-12-06T08:49:23.473Z,21.9
2018-12-06T08:50:14.059Z,21.9
2018-12-06T08:51:03.554Z,21.9
2018-12-06T08:51:53.610Z,21.9
2018-12-06T08:52:43.665Z,21.9
2018-12-06T09:08:31.087Z,22
2018-12-06T09:09:21.219Z,22
2018-12-06T09:10:10.662Z,22
2018-12-06T09:11:00.973Z,21.9
2018-12-06T09:11:51.587Z,21.9
2018-12-06T09:12:42.124Z,21.9
2018-12-06T09:13:31.377Z,21.9
2018-12-06T09:14:22.221Z,21.9
2018-12-06T09:15:11.730Z,21.9
2018-12-06T09:16:01.805Z,21.9
2018-12-06T09:16:52.151Z,21.9
2018-12-06T09:17:41.999Z,21.9
2018-12-06T09:18:33.106Z,21.9
2018-12-06T09:19:20.954Z,21.9
2018-12-06T09:20:11.340Z,21.9
2018-12-06T09:21:02.698Z,21.9
2018-12-06T09:21:51.391Z,21.9
2018-12-06T09:22:42.344Z,21.9
2018-12-06T09:23:32.066Z,21.8
2018-12-06T09:24:22.159Z,21.8
2018-12-06T09:25:12.711Z,21.8
2018-12-06T09:26:03.046Z,21.8
2018-12-06T09:27:00.218Z,21.8
2018-12-06T09:27:43.011Z,21.8
2018-12-06T09:28:33.446Z,21.8
2018-12-06T09:29:23.009Z,21.8
2018-12-06T09:30:13.021Z,21.8
2018-12-06T09:31:07.823Z,21.8
2018-12-06T09:31:52.876Z,21.8
2018-12-06T09:32:41.825Z,21.8
2018-12-06T09:33:32.671Z,21.8
2018-12-06T09:34:23.828Z,21.9
2018-12-06T09:35:12.957Z,21.9
2018-12-06T09:36:02.692Z,21.9
2018-12-06T09:36:52.951Z,21.9
2018-12-06T09:37:43.871Z,21.9
2018-12-06T09:38:33.378Z,21.9
2018-12-06T09:39:22.613Z,21.9
2018-12-06T09:40:13.461Z,21.9
2018-12-06T09:41:03.225Z,21.9
2018-12-06T09:41:53.311Z,21.9
2018-12-06T09:42:43.630Z,21.9
2018-12-06T09:43:32.917Z,21.9
2018-12-06T09:44:24.095Z,21.9
2018-12-06T09:45:13.870Z,22
2018-12-06T09:46:03.867Z,22
2018-12-06T09:46:53.642Z,22
2018-12-06T09:47:44.517Z,22.1
2018-12-06T09:48:34.302Z,22
2018-12-06T09:49:24.142Z,22.1
2018-12-06T09:50:13.602Z,22.1
2018-12-06T09:51:06.083Z,22.1
2018-12-06T09:51:54.529Z,22.1
2018-12-06T09:52:44.609Z,22.1
2018-12-06T09:53:34.109Z,22.1
2018-12-06T09:54:24.554Z,22
2018-12-06T09:55:15.019Z,22
2018-12-06T09:56:04.812Z,22
2018-12-06T09:56:54.319Z,22
2018-12-06T09:57:43.832Z,22
2018-12-06T09:58:35.007Z,22
2018-12-06T09:59:25.114Z,22
2018-12-06T10:00:14.949Z,22
2018-12-06T10:01:04.697Z,22
2018-12-06T10:01:55.008Z,21.9
2018-12-06T10:02:45.004Z,22
2018-12-06T10:03:34.593Z,21.9
2018-12-06T10:04:25.199Z,21.9
2018-12-06T10:05:15.704Z,21.9
2018-12-06T10:06:04.971Z,21.9
2018-12-06T10:06:55.021Z,21.9
2018-12-06T10:07:44.819Z,21.9
2018-12-06T10:08:35.391Z,21.9
2018-12-06T10:09:25.614Z,21.9
2018-12-06T10:10:15.857Z,21.9
2018-12-06T10:11:06.206Z,21.9
2018-12-06T10:11:55.071Z,21.9
2018-12-06T10:12:43.831Z,21.9
2018-12-06T10:13:35.479Z,21.9
2018-12-06T10:14:26.759Z,21.9
2018-12-06T10:15:15.928Z,21.8
2018-12-06T10:16:05.891Z,21.8
2018-12-06T10:16:55.994Z,21.8
2018-12-06T10:17:45.468Z,21.8
2018-12-06T10:18:36.466Z,21.8
2018-12-06T10:19:26.450Z,21.9
2018-12-06T10:20:16.540Z,21.9
2018-12-06T10:21:06.071Z,21.9
2018-12-06T10:21:56.023Z,21.9
2018-12-06T10:22:46.098Z,21.9
2018-12-06T10:23:35.688Z,21.9
2018-12-06T10:24:26.515Z,21.9
2018-12-06T10:25:16.586Z,21.9
2018-12-06T10:26:06.908Z,21.9
2018-12-06T10:26:56.698Z,21.9
2018-12-06T10:27:46.720Z,22
2018-12-06T10:28:36.788Z,22
2018-12-06T10:29:26.922Z,22
2018-12-06T10:30:16.961Z,22
2018-12-06T10:31:07.334Z,22
2018-12-06T10:31:56.739Z,22
2018-12-06T10:32:47.063Z,22.1
2018-12-06T10:33:36.577Z,22.1
2018-12-06T10:34:27.195Z,22.1
2018-12-06T10:35:18.179Z,22.1
2018-12-06T10:36:07.592Z,22.1
2018-12-06T10:36:57.412Z,22.1
2018-12-06T10:37:47.009Z,22.1
2018-12-06T10:38:37.554Z,22.1
2018-12-06T10:39:27.442Z,22.1
2018-12-06T10:40:17.834Z,22.1
2018-12-06T10:41:07.655Z,22.1
2018-12-06T10:41:58.237Z,22.1
2018-12-06T10:42:47.766Z,22
2018-12-06T10:43:37.826Z,22
2018-12-06T10:44:27.588Z,22
2018-12-06T10:45:18.266Z,21.9
2018-12-06T10:46:08.558Z,22
2018-12-06T10:46:58.285Z,22
2018-12-06T10:47:48.109Z,22
2018-12-06T10:48:38.174Z,22
2018-12-06T10:49:27.752Z,22
2018-12-06T10:50:18.261Z,21.9
2018-12-06T10:51:10.091Z,21.9
2018-12-06T10:51:58.091Z,21.9
2018-12-06T10:52:47.911Z,21.9
2018-12-06T10:53:38.228Z,21.9
2018-12-06T10:54:28.391Z,21.9
2018-12-06T10:55:18.216Z,21.9
2018-12-06T10:56:09.703Z,21.9
2018-12-06T10:56:59.176Z,21.9
2018-12-06T10:57:48.509Z,21.8
2018-12-06T10:58:38.013Z,21.8
2018-12-06T10:59:29.491Z,21.9
2018-12-06T11:00:19.522Z,21.8
2018-12-06T11:01:09.261Z,21.8
2018-12-06T11:02:00.155Z,21.9
2018-12-06T11:02:48.879Z,21.9
2018-12-06T11:03:39.760Z,21.9
2018-12-06T11:04:29.031Z,21.9
2018-12-06T11:05:19.608Z,21.9
2018-12-06T11:06:09.621Z,21.9
2018-12-06T11:06:59.230Z,21.9
2018-12-06T11:07:49.476Z,21.9
2018-12-06T11:08:39.570Z,21.9
2018-12-06T11:09:29.605Z,21.9
2018-12-06T11:10:20.011Z,21.9
2018-12-06T11:11:10.322Z,21.9
2018-12-06T11:11:59.730Z,22
2018-12-06T11:12:50.383Z,22
2018-12-06T11:13:40.155Z,22
2018-12-06T11:14:30.514Z,22
2018-12-06T11:15:19.990Z,22
2018-12-06T11:16:10.583Z,22.1
2018-12-06T11:16:59.265Z,22.1
2018-12-06T11:17:50.137Z,22.1
2018-12-06T11:18:39.763Z,22.1
2018-12-06T11:19:30.007Z,22.1
2018-12-06T11:20:20.077Z,22.1
2018-12-06T11:21:11.247Z,22
2018-12-06T11:22:00.187Z,22
2018-12-06T11:22:51.330Z,22
2018-12-06T11:23:40.587Z,22
2018-12-06T11:24:30.449Z,22
2018-12-06T11:25:20.420Z,21.9
2018-12-06T11:26:10.465Z,21.9
2018-12-06T11:27:01.162Z,22
2018-12-06T11:27:51.489Z,22
2018-12-06T11:28:40.161Z,21.9
2018-12-06T11:29:30.980Z,21.9
2018-12-06T11:30:21.052Z,21.9
2018-12-06T11:31:11.457Z,21.9
2018-12-06T11:32:01.522Z,21.9
2018-12-06T11:32:51.822Z,21.9
2018-12-06T11:33:41.352Z,21.9
2018-12-06T11:34:31.869Z,21.9
2018-12-06T11:35:21.709Z,21.9
2018-12-06T11:36:10.603Z,21.9
2018-12-06T11:37:01.220Z,21.8
2018-12-06T11:37:52.166Z,21.8
2018-12-06T11:38:42.259Z,21.8
2018-12-06T11:39:31.406Z,21.8
2018-12-06T11:40:21.761Z,21.8
2018-12-06T11:41:11.804Z,21.8
2018-12-06T11:42:01.979Z,21.8
2018-12-06T11:42:52.434Z,21.8
2018-12-06T11:43:41.739Z,21.8
2018-12-06T11:44:31.745Z,21.8
2018-12-06T11:45:22.368Z,21.8
2018-12-06T11:46:12.391Z,21.8
2018-12-06T11:47:01.686Z,21.8
2018-12-06T11:47:52.553Z,21.8
2018-12-06T11:48:42.283Z,21.8
2018-12-06T11:49:31.829Z,21.8
2018-12-06T11:50:22.411Z,21.8
2018-12-06T11:51:13.021Z,21.8
2018-12-06T11:52:02.595Z,21.8
2018-12-06T11:52:52.041Z,21.8
2018-12-06T11:53:42.122Z,21.8
2018-12-06T11:54:32.995Z,21.8
2018-12-06T11:55:23.811Z,21.8
2018-12-06T11:56:13.143Z,21.8
2018-12-06T11:57:03.160Z,21.9
2018-12-06T11:57:53.335Z,21.9
2018-12-06T11:58:42.778Z,21.9
2018-12-06T11:59:32.602Z,21.9
2018-12-06T12:00:23.300Z,21.9
2018-12-06T12:01:13.423Z,21.9
2018-12-06T12:02:11.348Z,21.9
2018-12-06T12:02:53.023Z,21.9
2018-12-06T12:03:44.498Z,21.9
2018-12-06T12:04:33.707Z,21.9
2018-12-06T12:05:24.007Z,21.9
2018-12-06T12:06:13.522Z,21.9
2018-12-06T12:07:04.267Z,21.9
2018-12-06T12:07:53.395Z,21.9